sensor_id;sensor_type;location;lat;lon;timestamp;P1;durP1;ratioP1;P2;durP2;ratioP2
41739;SDS011;27422;52.444;13.300;2022-09-11T00:01:13;9.88;;;5.70;;
41739;SDS011;27422;52.444;13.300;2022-09-11T00:03:40;8.53;;;5.67;;
41739;SDS011;27422;52.444;13.300;2022-09-11T00:06:10;8.88;;;5.25;;
41739;SDS011;27422;52.444;13.300;2022-09-11T00:08:38;7.93;;;5.40;;
41739;SDS011;27422;52.444;13.300;2022-09-11T00:13:31;9.75;;;5.10;;
41739;SDS011;27422;52.444;13.300;2022-09-11T00:15:57;9.93;;;5.32;;
41739;SDS011;27422;52.444;13.300;2022-09-11T00:18:22;8.13;;;5.47;;
41739;SDS011;27422;52.444;13.300;2022-09-11T00:20:53;7.72;;;5.32;;
41739;SDS011;27422;52.444;13.300;2022-09-11T00:23:21;9.25;;;4.88;;
41739;SDS011;27422;52.444;13.300;2022-09-11T00:28:16;7.72;;;4.82;;
41739;SDS011;27422;52.444;13.300;2022-09-11T00:30:46;7.57;;;5.35;;
41739;SDS011;27422;52.444;13.300;2022-09-11T00:33:13;9.05;;;5.05;;
41739;SDS011;27422;52.444;13.300;2022-09-11T00:35:40;7.18;;;4.78;;
41739;SDS011;27422;52.444;13.300;2022-09-11T00:38:06;7.70;;;4.60;;
41739;SDS011;27422;52.444;13.300;2022-09-11T00:40:33;9.13;;;4.93;;
41739;SDS011;27422;52.444;13.300;2022-09-11T00:43:08;6.80;;;5.00;;
41739;SDS011;27422;52.444;13.300;2022-09-11T00:45:34;6.97;;;5.05;;
41739;SDS011;27422;52.444;13.300;2022-09-11T00:47:59;7.88;;;5.20;;
41739;SDS011;27422;52.444;13.300;2022-09-11T00:50:26;7.88;;;4.93;;
41739;SDS011;27422;52.444;13.300;2022-09-11T00:57:51;6.18;;;4.53;;
41739;SDS011;27422;52.444;13.300;2022-09-11T01:00:23;7.47;;;5.15;;
41739;SDS011;27422;52.444;13.300;2022-09-11T01:02:48;6.53;;;4.72;;
41739;SDS011;27422;52.444;13.300;2022-09-11T01:05:16;7.35;;;4.72;;
41739;SDS011;27422;52.444;13.300;2022-09-11T01:07:43;7.82;;;4.82;;
41739;SDS011;27422;52.444;13.300;2022-09-11T01:12:52;6.88;;;4.35;;
41739;SDS011;27422;52.444;13.300;2022-09-11T01:18:37;8.60;;;5.05;;
41739;SDS011;27422;52.444;13.300;2022-09-11T01:21:20;7.10;;;4.88;;
41739;SDS011;27422;52.444;13.300;2022-09-11T01:24:13;7.88;;;4.80;;
41739;SDS011;27422;52.444;13.300;2022-09-11T01:27:07;7.68;;;4.90;;
41739;SDS011;27422;52.444;13.300;2022-09-11T01:29:49;12.80;;;5.05;;
41739;SDS011;27422;52.444;13.300;2022-09-11T01:33:03;9.32;;;4.82;;
41739;SDS011;27422;52.444;13.300;2022-09-11T01:35:21;7.95;;;5.03;;
41739;SDS011;27422;52.444;13.300;2022-09-11T01:40:50;6.68;;;4.85;;
41739;SDS011;27422;52.444;13.300;2022-09-11T01:43:27;7.20;;;4.88;;
41739;SDS011;27422;52.444;13.300;2022-09-11T01:45:55;8.52;;;4.75;;
41739;SDS011;27422;52.444;13.300;2022-09-11T01:48:25;7.40;;;4.93;;
41739;SDS011;27422;52.444;13.300;2022-09-11T01:51:03;8.77;;;4.93;;
41739;SDS011;27422;52.444;13.300;2022-09-11T01:53:34;10.00;;;5.35;;
41739;SDS011;27422;52.444;13.300;2022-09-11T01:56:04;6.78;;;4.90;;
41739;SDS011;27422;52.444;13.300;2022-09-11T01:58:37;8.90;;;5.10;;
41739;SDS011;27422;52.444;13.300;2022-09-11T02:01:08;7.55;;;5.07;;
41739;SDS011;27422;52.444;13.300;2022-09-11T02:03:38;8.52;;;4.95;;
41739;SDS011;27422;52.444;13.300;2022-09-11T02:06:08;8.57;;;4.70;;
41739;SDS011;27422;52.444;13.300;2022-09-11T02:11:09;8.43;;;5.40;;
41739;SDS011;27422;52.444;13.300;2022-09-11T02:16:35;8.73;;;5.15;;
41739;SDS011;27422;52.444;13.300;2022-09-11T02:19:15;7.68;;;4.85;;
41739;SDS011;27422;52.444;13.300;2022-09-11T02:21:45;10.02;;;5.28;;
41739;SDS011;27422;52.444;13.300;2022-09-11T02:24:17;7.75;;;5.05;;
41739;SDS011;27422;52.444;13.300;2022-09-11T02:26:54;8.02;;;5.40;;
41739;SDS011;27422;52.444;13.300;2022-09-11T02:29:22;7.57;;;5.22;;
41739;SDS011;27422;52.444;13.300;2022-09-11T02:31:48;8.02;;;5.07;;
41739;SDS011;27422;52.444;13.300;2022-09-11T02:34:14;9.02;;;5.38;;
41739;SDS011;27422;52.444;13.300;2022-09-11T02:47:15;8.63;;;5.20;;
41739;SDS011;27422;52.444;13.300;2022-09-11T02:49:51;8.52;;;5.63;;
41739;SDS011;27422;52.444;13.300;2022-09-11T02:52:28;10.32;;;5.47;;
41739;SDS011;27422;52.444;13.300;2022-09-11T02:57:34;8.70;;;5.65;;
41739;SDS011;27422;52.444;13.300;2022-09-11T03:00:04;8.65;;;5.75;;
41739;SDS011;27422;52.444;13.300;2022-09-11T03:02:32;10.02;;;5.57;;
41739;SDS011;27422;52.444;13.300;2022-09-11T03:05:01;8.43;;;5.30;;
41739;SDS011;27422;52.444;13.300;2022-09-11T03:07:28;7.03;;;5.45;;
41739;SDS011;27422;52.444;13.300;2022-09-11T03:09:53;10.43;;;5.60;;
41739;SDS011;27422;52.444;13.300;2022-09-11T03:12:18;9.52;;;5.10;;
41739;SDS011;27422;52.444;13.300;2022-09-11T03:14:44;8.90;;;5.65;;
41739;SDS011;27422;52.444;13.300;2022-09-11T03:17:09;11.38;;;5.85;;
41739;SDS011;27422;52.444;13.300;2022-09-11T03:19:35;7.65;;;5.50;;
41739;SDS011;27422;52.444;13.300;2022-09-11T03:22:03;9.38;;;5.55;;
41739;SDS011;27422;52.444;13.300;2022-09-11T03:24:28;8.98;;;5.63;;
41739;SDS011;27422;52.444;13.300;2022-09-11T03:26:54;10.80;;;5.93;;
41739;SDS011;27422;52.444;13.300;2022-09-11T03:29:19;9.80;;;5.78;;
41739;SDS011;27422;52.444;13.300;2022-09-11T03:31:45;11.82;;;6.32;;
41739;SDS011;27422;52.444;13.300;2022-09-11T03:34:11;10.07;;;5.95;;
41739;SDS011;27422;52.444;13.300;2022-09-11T03:36:38;10.77;;;5.80;;
41739;SDS011;27422;52.444;13.300;2022-09-11T03:39:04;11.77;;;6.30;;
41739;SDS011;27422;52.444;13.300;2022-09-11T03:41:30;10.85;;;7.28;;
41739;SDS011;27422;52.444;13.300;2022-09-11T03:43:56;11.80;;;7.50;;
41739;SDS011;27422;52.444;13.300;2022-09-11T03:46:21;10.70;;;7.47;;
41739;SDS011;27422;52.444;13.300;2022-09-11T03:48:48;11.93;;;8.13;;
41739;SDS011;27422;52.444;13.300;2022-09-11T03:51:14;13.43;;;7.57;;
41739;SDS011;27422;52.444;13.300;2022-09-11T03:53:42;11.85;;;8.15;;
41739;SDS011;27422;52.444;13.300;2022-09-11T03:56:08;11.73;;;7.88;;
41739;SDS011;27422;52.444;13.300;2022-09-11T03:58:34;11.73;;;7.95;;
41739;SDS011;27422;52.444;13.300;2022-09-11T04:01:00;11.95;;;8.02;;
41739;SDS011;27422;52.444;13.300;2022-09-11T04:03:25;12.35;;;8.63;;
41739;SDS011;27422;52.444;13.300;2022-09-11T04:05:55;13.75;;;8.57;;
41739;SDS011;27422;52.444;13.300;2022-09-11T04:08:21;15.98;;;9.93;;
41739;SDS011;27422;52.444;13.300;2022-09-11T04:10:47;13.88;;;9.68;;
41739;SDS011;27422;52.444;13.300;2022-09-11T04:13:14;12.93;;;9.63;;
41739;SDS011;27422;52.444;13.300;2022-09-11T04:15:40;15.93;;;10.63;;
41739;SDS011;27422;52.444;13.300;2022-09-11T04:18:06;15.93;;;10.45;;
41739;SDS011;27422;52.444;13.300;2022-09-11T04:20:32;15.75;;;10.70;;
41739;SDS011;27422;52.444;13.300;2022-09-11T04:22:57;18.10;;;10.10;;
41739;SDS011;27422;52.444;13.300;2022-09-11T04:25:23;14.00;;;9.45;;
41739;SDS011;27422;52.444;13.300;2022-09-11T04:27:48;15.00;;;9.10;;
41739;SDS011;27422;52.444;13.300;2022-09-11T04:30:14;16.95;;;9.88;;
41739;SDS011;27422;52.444;13.300;2022-09-11T04:32:39;14.68;;;8.73;;
41739;SDS011;27422;52.444;13.300;2022-09-11T04:35:05;17.75;;;9.18;;
41739;SDS011;27422;52.444;13.300;2022-09-11T04:37:31;19.17;;;9.77;;
41739;SDS011;27422;52.444;13.300;2022-09-11T04:39:59;20.30;;;9.98;;
41739;SDS011;27422;52.444;13.300;2022-09-11T04:42:24;22.15;;;10.35;;
41739;SDS011;27422;52.444;13.300;2022-09-11T04:44:50;20.17;;;10.55;;
41739;SDS011;27422;52.444;13.300;2022-09-11T04:47:15;22.60;;;10.93;;
41739;SDS011;27422;52.444;13.300;2022-09-11T04:49:42;23.87;;;11.30;;
41739;SDS011;27422;52.444;13.300;2022-09-11T04:52:10;19.73;;;10.77;;
41739;SDS011;27422;52.444;13.300;2022-09-11T04:54:36;23.55;;;10.73;;
41739;SDS011;27422;52.444;13.300;2022-09-11T04:57:01;22.33;;;10.90;;
41739;SDS011;27422;52.444;13.300;2022-09-11T04:59:28;23.40;;;11.40;;
41739;SDS011;27422;52.444;13.300;2022-09-11T05:01:56;22.02;;;11.30;;
41739;SDS011;27422;52.444;13.300;2022-09-11T05:04:21;23.08;;;11.40;;
41739;SDS011;27422;52.444;13.300;2022-09-11T05:06:47;22.27;;;10.93;;
41739;SDS011;27422;52.444;13.300;2022-09-11T05:09:13;24.73;;;12.15;;
41739;SDS011;27422;52.444;13.300;2022-09-11T05:11:39;23.10;;;12.20;;
41739;SDS011;27422;52.444;13.300;2022-09-11T05:14:05;21.13;;;11.38;;
41739;SDS011;27422;52.444;13.300;2022-09-11T05:16:31;21.95;;;11.25;;
41739;SDS011;27422;52.444;13.300;2022-09-11T05:18:58;22.00;;;11.75;;
41739;SDS011;27422;52.444;13.300;2022-09-11T05:21:24;22.27;;;12.07;;
41739;SDS011;27422;52.444;13.300;2022-09-11T05:23:51;22.73;;;11.27;;
41739;SDS011;27422;52.444;13.300;2022-09-11T05:26:20;21.33;;;12.07;;
41739;SDS011;27422;52.444;13.300;2022-09-11T05:28:52;21.90;;;11.35;;
41739;SDS011;27422;52.444;13.300;2022-09-11T05:31:18;24.10;;;12.25;;
41739;SDS011;27422;52.444;13.300;2022-09-11T05:33:44;24.67;;;12.30;;
41739;SDS011;27422;52.444;13.300;2022-09-11T05:36:14;21.90;;;12.60;;
41739;SDS011;27422;52.444;13.300;2022-09-11T05:38:42;24.50;;;12.40;;
41739;SDS011;27422;52.444;13.300;2022-09-11T05:41:09;21.67;;;11.88;;
41739;SDS011;27422;52.444;13.300;2022-09-11T05:43:35;23.17;;;11.90;;
41739;SDS011;27422;52.444;13.300;2022-09-11T05:46:02;23.73;;;11.73;;
41739;SDS011;27422;52.444;13.300;2022-09-11T05:48:28;22.13;;;11.85;;
41739;SDS011;27422;52.444;13.300;2022-09-11T05:50:55;24.42;;;12.07;;
41739;SDS011;27422;52.444;13.300;2022-09-11T05:53:25;25.02;;;12.95;;
41739;SDS011;27422;52.444;13.300;2022-09-11T05:55:51;26.98;;;11.98;;
41739;SDS011;27422;52.444;13.300;2022-09-11T05:58:17;24.95;;;12.65;;
41739;SDS011;27422;52.444;13.300;2022-09-11T06:00:43;25.05;;;13.07;;
41739;SDS011;27422;52.444;13.300;2022-09-11T06:03:12;24.63;;;12.45;;
41739;SDS011;27422;52.444;13.300;2022-09-11T06:05:38;24.48;;;12.75;;
41739;SDS011;27422;52.444;13.300;2022-09-11T06:08:04;23.23;;;12.57;;
41739;SDS011;27422;52.444;13.300;2022-09-11T06:10:31;25.83;;;13.55;;
41739;SDS011;27422;52.444;13.300;2022-09-11T06:12:57;26.23;;;13.20;;
41739;SDS011;27422;52.444;13.300;2022-09-11T06:15:23;27.42;;;13.52;;
41739;SDS011;27422;52.444;13.300;2022-09-11T06:17:49;28.77;;;13.05;;
41739;SDS011;27422;52.444;13.300;2022-09-11T06:20:15;24.42;;;13.23;;
41739;SDS011;27422;52.444;13.300;2022-09-11T06:22:43;25.17;;;13.52;;
41739;SDS011;27422;52.444;13.300;2022-09-11T06:25:08;24.92;;;13.65;;
41739;SDS011;27422;52.444;13.300;2022-09-11T06:27:36;25.60;;;13.77;;
41739;SDS011;27422;52.444;13.300;2022-09-11T06:30:02;24.33;;;13.32;;
41739;SDS011;27422;52.444;13.300;2022-09-11T06:32:28;27.98;;;14.55;;
41739;SDS011;27422;52.444;13.300;2022-09-11T06:34:54;27.63;;;14.98;;
41739;SDS011;27422;52.444;13.300;2022-09-11T06:37:19;29.42;;;14.32;;
41739;SDS011;27422;52.444;13.300;2022-09-11T06:39:45;24.98;;;14.00;;
41739;SDS011;27422;52.444;13.300;2022-09-11T06:42:11;24.17;;;13.13;;
41739;SDS011;27422;52.444;13.300;2022-09-11T06:44:37;23.92;;;13.43;;
41739;SDS011;27422;52.444;13.300;2022-09-11T06:47:02;23.75;;;13.27;;
41739;SDS011;27422;52.444;13.300;2022-09-11T06:49:28;24.92;;;13.75;;
41739;SDS011;27422;52.444;13.300;2022-09-11T06:51:56;21.13;;;12.35;;
41739;SDS011;27422;52.444;13.300;2022-09-11T06:54:21;24.23;;;12.50;;
41739;SDS011;27422;52.444;13.300;2022-09-11T06:56:47;20.15;;;12.52;;
41739;SDS011;27422;52.444;13.300;2022-09-11T06:59:12;23.67;;;12.55;;
41739;SDS011;27422;52.444;13.300;2022-09-11T07:01:38;20.60;;;12.27;;
41739;SDS011;27422;52.444;13.300;2022-09-11T07:04:04;19.83;;;11.75;;
41739;SDS011;27422;52.444;13.300;2022-09-11T07:06:29;20.50;;;11.95;;
41739;SDS011;27422;52.444;13.300;2022-09-11T07:08:58;20.17;;;11.88;;
41739;SDS011;27422;52.444;13.300;2022-09-11T07:11:26;19.08;;;10.63;;
41739;SDS011;27422;52.444;13.300;2022-09-11T07:13:51;18.13;;;10.95;;
41739;SDS011;27422;52.444;13.300;2022-09-11T07:16:18;18.48;;;11.98;;
41739;SDS011;27422;52.444;13.300;2022-09-11T07:18:44;20.55;;;11.75;;
41739;SDS011;27422;52.444;13.300;2022-09-11T07:21:18;20.23;;;10.80;;
41739;SDS011;27422;52.444;13.300;2022-09-11T07:23:50;17.20;;;10.88;;
41739;SDS011;27422;52.444;13.300;2022-09-11T07:26:18;17.20;;;10.98;;
41739;SDS011;27422;52.444;13.300;2022-09-11T07:28:44;16.88;;;10.68;;
41739;SDS011;27422;52.444;13.300;2022-09-11T07:31:13;16.63;;;9.70;;
41739;SDS011;27422;52.444;13.300;2022-09-11T07:33:41;16.25;;;10.10;;
41739;SDS011;27422;52.444;13.300;2022-09-11T07:36:13;18.13;;;10.38;;
41739;SDS011;27422;52.444;13.300;2022-09-11T07:38:41;13.95;;;9.10;;
41739;SDS011;27422;52.444;13.300;2022-09-11T07:41:07;16.47;;;10.23;;
41739;SDS011;27422;52.444;13.300;2022-09-11T07:43:36;14.93;;;9.50;;
41739;SDS011;27422;52.444;13.300;2022-09-11T07:46:04;16.25;;;9.02;;
41739;SDS011;27422;52.444;13.300;2022-09-11T07:48:30;16.05;;;9.82;;
41739;SDS011;27422;52.444;13.300;2022-09-11T07:50:56;14.10;;;9.55;;
41739;SDS011;27422;52.444;13.300;2022-09-11T07:53:23;16.27;;;9.63;;
41739;SDS011;27422;52.444;13.300;2022-09-11T07:55:49;16.77;;;9.50;;
41739;SDS011;27422;52.444;13.300;2022-09-11T07:58:15;16.75;;;10.10;;
41739;SDS011;27422;52.444;13.300;2022-09-11T08:00:42;13.98;;;8.48;;
41739;SDS011;27422;52.444;13.300;2022-09-11T08:03:07;13.05;;;7.72;;
41739;SDS011;27422;52.444;13.300;2022-09-11T08:05:33;13.15;;;8.52;;
41739;SDS011;27422;52.444;13.300;2022-09-11T08:07:58;14.60;;;7.78;;
41739;SDS011;27422;52.444;13.300;2022-09-11T08:10:24;11.38;;;7.13;;
41739;SDS011;27422;52.444;13.300;2022-09-11T08:12:49;16.98;;;7.60;;
41739;SDS011;27422;52.444;13.300;2022-09-11T08:15:16;12.98;;;7.65;;
41739;SDS011;27422;52.444;13.300;2022-09-11T08:17:42;12.05;;;7.25;;
41739;SDS011;27422;52.444;13.300;2022-09-11T08:20:08;13.45;;;6.88;;
41739;SDS011;27422;52.444;13.300;2022-09-11T08:22:33;12.88;;;7.65;;
41739;SDS011;27422;52.444;13.300;2022-09-11T08:24:59;11.10;;;7.13;;
41739;SDS011;27422;52.444;13.300;2022-09-11T08:27:26;12.48;;;7.50;;
41739;SDS011;27422;52.444;13.300;2022-09-11T08:29:51;11.52;;;7.38;;
41739;SDS011;27422;52.444;13.300;2022-09-11T08:32:20;11.57;;;6.90;;
41739;SDS011;27422;52.444;13.300;2022-09-11T08:34:48;14.90;;;8.73;;
41739;SDS011;27422;52.444;13.300;2022-09-11T08:37:14;11.95;;;7.38;;
41739;SDS011;27422;52.444;13.300;2022-09-11T08:39:39;12.35;;;7.40;;
41739;SDS011;27422;52.444;13.300;2022-09-11T08:42:08;12.00;;;7.63;;
41739;SDS011;27422;52.444;13.300;2022-09-11T08:44:46;14.20;;;7.93;;
41739;SDS011;27422;52.444;13.300;2022-09-11T08:47:19;12.57;;;7.80;;
41739;SDS011;27422;52.444;13.300;2022-09-11T08:49:58;13.48;;;7.38;;
41739;SDS011;27422;52.444;13.300;2022-09-11T08:52:27;14.07;;;7.30;;
41739;SDS011;27422;52.444;13.300;2022-09-11T08:54:54;11.70;;;7.03;;
41739;SDS011;27422;52.444;13.300;2022-09-11T08:59:55;9.87;;;6.40;;
41739;SDS011;27422;52.444;13.300;2022-09-11T09:05:02;11.05;;;6.97;;
41739;SDS011;27422;52.444;13.300;2022-09-11T09:10:22;12.73;;;6.93;;
41739;SDS011;27422;52.444;13.300;2022-09-11T09:15:53;12.82;;;6.97;;
41739;SDS011;27422;52.444;13.300;2022-09-11T09:20:59;10.40;;;6.50;;
41739;SDS011;27422;52.444;13.300;2022-09-11T09:23:34;10.25;;;6.75;;
41739;SDS011;27422;52.444;13.300;2022-09-11T09:26:04;11.15;;;6.70;;
41739;SDS011;27422;52.444;13.300;2022-09-11T09:28:39;11.00;;;6.53;;
41739;SDS011;27422;52.444;13.300;2022-09-11T09:31:08;9.82;;;6.15;;
41739;SDS011;27422;52.444;13.300;2022-09-11T09:33:42;10.10;;;6.25;;
41739;SDS011;27422;52.444;13.300;2022-09-11T09:38:45;10.02;;;6.70;;
41739;SDS011;27422;52.444;13.300;2022-09-11T09:43:45;10.25;;;6.32;;
41739;SDS011;27422;52.444;13.300;2022-09-11T09:46:20;9.23;;;5.60;;
41739;SDS011;27422;52.444;13.300;2022-09-11T09:49:02;9.63;;;5.97;;
41739;SDS011;27422;52.444;13.300;2022-09-11T09:51:28;11.50;;;6.82;;
41739;SDS011;27422;52.444;13.300;2022-09-11T09:53:55;12.45;;;6.57;;
41739;SDS011;27422;52.444;13.300;2022-09-11T09:56:22;10.20;;;6.78;;
41739;SDS011;27422;52.444;13.300;2022-09-11T10:01:52;8.63;;;5.65;;
41739;SDS011;27422;52.444;13.300;2022-09-11T10:04:24;10.57;;;5.88;;
41739;SDS011;27422;52.444;13.300;2022-09-11T10:07:04;8.73;;;5.53;;
41739;SDS011;27422;52.444;13.300;2022-09-11T10:09:31;9.25;;;5.50;;
41739;SDS011;27422;52.444;13.300;2022-09-11T10:11:58;10.63;;;6.00;;
41739;SDS011;27422;52.444;13.300;2022-09-11T10:14:34;10.43;;;6.25;;
41739;SDS011;27422;52.444;13.300;2022-09-11T10:17:21;9.18;;;6.07;;
41739;SDS011;27422;52.444;13.300;2022-09-11T10:19:47;11.57;;;6.80;;
41739;SDS011;27422;52.444;13.300;2022-09-11T10:22:19;11.43;;;6.45;;
41739;SDS011;27422;52.444;13.300;2022-09-11T10:27:42;9.20;;;5.72;;
41739;SDS011;27422;52.444;13.300;2022-09-11T10:35:52;8.35;;;5.47;;
41739;SDS011;27422;52.444;13.300;2022-09-11T10:38:20;11.70;;;5.85;;
41739;SDS011;27422;52.444;13.300;2022-09-11T10:41:32;8.98;;;5.43;;
41739;SDS011;27422;52.444;13.300;2022-09-11T10:51:27;8.88;;;5.07;;
41739;SDS011;27422;52.444;13.300;2022-09-11T10:59:50;6.28;;;4.13;;
41739;SDS011;27422;52.444;13.300;2022-09-11T11:04:57;8.30;;;4.63;;
41739;SDS011;27422;52.444;13.300;2022-09-11T11:18:52;8.77;;;4.70;;
41739;SDS011;27422;52.444;13.300;2022-09-11T11:38:08;7.43;;;4.40;;
41739;SDS011;27422;52.444;13.300;2022-09-11T11:40:46;7.43;;;4.25;;
41739;SDS011;27422;52.444;13.300;2022-09-11T11:43:14;6.35;;;3.83;;
41739;SDS011;27422;52.444;13.300;2022-09-11T11:45:56;8.10;;;4.25;;
41739;SDS011;27422;52.444;13.300;2022-09-11T11:48:39;6.03;;;3.72;;
41739;SDS011;27422;52.444;13.300;2022-09-11T11:51:17;5.90;;;4.00;;
41739;SDS011;27422;52.444;13.300;2022-09-11T11:53:56;6.80;;;3.80;;
41739;SDS011;27422;52.444;13.300;2022-09-11T12:01:58;7.80;;;3.83;;
41739;SDS011;27422;52.444;13.300;2022-09-11T12:07:28;6.00;;;4.15;;
41739;SDS011;27422;52.444;13.300;2022-09-11T12:09:55;6.88;;;4.18;;
41739;SDS011;27422;52.444;13.300;2022-09-11T12:14:49;6.55;;;4.22;;
41739;SDS011;27422;52.444;13.300;2022-09-11T12:17:18;6.05;;;3.95;;
41739;SDS011;27422;52.444;13.300;2022-09-11T12:22:43;6.85;;;3.95;;
41739;SDS011;27422;52.444;13.300;2022-09-11T12:27:49;5.97;;;3.28;;
41739;SDS011;27422;52.444;13.300;2022-09-11T12:32:49;5.72;;;3.40;;
41739;SDS011;27422;52.444;13.300;2022-09-11T12:35:20;6.38;;;3.05;;
41739;SDS011;27422;52.444;13.300;2022-09-11T12:38:30;4.78;;;2.72;;
41739;SDS011;27422;52.444;13.300;2022-09-11T12:40:52;4.93;;;2.83;;
41739;SDS011;27422;52.444;13.300;2022-09-11T12:46:04;5.13;;;3.40;;
41739;SDS011;27422;52.444;13.300;2022-09-11T12:49:14;5.07;;;3.13;;
41739;SDS011;27422;52.444;13.300;2022-09-11T12:51:49;5.32;;;3.30;;
41739;SDS011;27422;52.444;13.300;2022-09-11T12:56:50;7.40;;;3.53;;
41739;SDS011;27422;52.444;13.300;2022-09-11T12:59:25;5.88;;;3.20;;
41739;SDS011;27422;52.444;13.300;2022-09-11T13:01:54;3.92;;;2.65;;
41739;SDS011;27422;52.444;13.300;2022-09-11T13:04:21;5.50;;;3.50;;
41739;SDS011;27422;52.444;13.300;2022-09-11T13:06:51;4.30;;;3.00;;
41739;SDS011;27422;52.444;13.300;2022-09-11T13:11:53;4.72;;;3.20;;
41739;SDS011;27422;52.444;13.300;2022-09-11T13:16:52;6.63;;;3.47;;
41739;SDS011;27422;52.444;13.300;2022-09-11T13:19:21;6.13;;;3.80;;
41739;SDS011;27422;52.444;13.300;2022-09-11T13:21:47;5.78;;;3.85;;
41739;SDS011;27422;52.444;13.300;2022-09-11T13:26:51;8.23;;;4.10;;
41739;SDS011;27422;52.444;13.300;2022-09-11T13:29:24;6.15;;;4.15;;
41739;SDS011;27422;52.444;13.300;2022-09-11T13:31:50;5.15;;;3.45;;
41739;SDS011;27422;52.444;13.300;2022-09-11T13:34:17;5.57;;;3.30;;
41739;SDS011;27422;52.444;13.300;2022-09-11T13:36:44;6.10;;;3.70;;
41739;SDS011;27422;52.444;13.300;2022-09-11T13:39:11;5.05;;;3.15;;
41739;SDS011;27422;52.444;13.300;2022-09-11T13:41:40;5.38;;;3.55;;
41739;SDS011;27422;52.444;13.300;2022-09-11T13:44:11;4.93;;;3.05;;
41739;SDS011;27422;52.444;13.300;2022-09-11T13:46:53;5.78;;;3.53;;
41739;SDS011;27422;52.444;13.300;2022-09-11T13:49:35;5.25;;;2.80;;
41739;SDS011;27422;52.444;13.300;2022-09-11T13:52:06;3.80;;;2.35;;
41739;SDS011;27422;52.444;13.300;2022-09-11T13:57:51;4.78;;;2.58;;
41739;SDS011;27422;52.444;13.300;2022-09-11T14:00:40;4.38;;;2.40;;
41739;SDS011;27422;52.444;13.300;2022-09-11T14:03:28;3.63;;;2.17;;
41739;SDS011;27422;52.444;13.300;2022-09-11T14:05:59;4.65;;;2.08;;
41739;SDS011;27422;52.444;13.300;2022-09-11T14:08:32;4.30;;;2.30;;
41739;SDS011;27422;52.444;13.300;2022-09-11T14:11:04;4.00;;;2.20;;
41739;SDS011;27422;52.444;13.300;2022-09-11T14:13:39;4.53;;;2.20;;
41739;SDS011;27422;52.444;13.300;2022-09-11T14:16:08;4.50;;;2.50;;
41739;SDS011;27422;52.444;13.300;2022-09-11T14:18:50;5.68;;;2.65;;
41739;SDS011;27422;52.444;13.300;2022-09-11T14:21:18;5.00;;;2.80;;
41739;SDS011;27422;52.444;13.300;2022-09-11T14:23:52;4.95;;;2.55;;
41739;SDS011;27422;52.444;13.300;2022-09-11T14:26:19;5.22;;;2.53;;
41739;SDS011;27422;52.444;13.300;2022-09-11T14:36:47;4.95;;;2.45;;
41739;SDS011;27422;52.444;13.300;2022-09-11T14:39:20;4.03;;;2.10;;
41739;SDS011;27422;52.444;13.300;2022-09-11T14:41:47;4.32;;;2.50;;
41739;SDS011;27422;52.444;13.300;2022-09-11T14:44:13;6.45;;;2.50;;
41739;SDS011;27422;52.444;13.300;2022-09-11T14:46:43;5.00;;;2.80;;
41739;SDS011;27422;52.444;13.300;2022-09-11T14:49:08;5.28;;;2.75;;
41739;SDS011;27422;52.444;13.300;2022-09-11T14:51:37;4.95;;;2.83;;
41739;SDS011;27422;52.444;13.300;2022-09-11T14:54:05;4.82;;;2.47;;
41739;SDS011;27422;52.444;13.300;2022-09-11T14:56:32;4.25;;;2.60;;
41739;SDS011;27422;52.444;13.300;2022-09-11T14:58:58;5.18;;;2.80;;
41739;SDS011;27422;52.444;13.300;2022-09-11T15:01:23;4.65;;;2.78;;
41739;SDS011;27422;52.444;13.300;2022-09-11T15:03:50;4.88;;;3.03;;
41739;SDS011;27422;52.444;13.300;2022-09-11T15:06:17;4.80;;;2.90;;
41739;SDS011;27422;52.444;13.300;2022-09-11T15:08:44;5.57;;;2.78;;
41739;SDS011;27422;52.444;13.300;2022-09-11T15:11:10;4.35;;;2.25;;
41739;SDS011;27422;52.444;13.300;2022-09-11T15:13:35;4.05;;;2.47;;
41739;SDS011;27422;52.444;13.300;2022-09-11T15:16:01;4.78;;;2.45;;
41739;SDS011;27422;52.444;13.300;2022-09-11T15:18:26;4.07;;;2.22;;
41739;SDS011;27422;52.444;13.300;2022-09-11T15:20:51;4.10;;;2.20;;
41739;SDS011;27422;52.444;13.300;2022-09-11T15:23:17;5.05;;;2.20;;
41739;SDS011;27422;52.444;13.300;2022-09-11T15:25:42;3.80;;;1.90;;
41739;SDS011;27422;52.444;13.300;2022-09-11T15:28:08;4.22;;;2.13;;
41739;SDS011;27422;52.444;13.300;2022-09-11T15:30:34;3.78;;;2.10;;
41739;SDS011;27422;52.444;13.300;2022-09-11T15:33:01;4.32;;;2.30;;
41739;SDS011;27422;52.444;13.300;2022-09-11T15:35:27;3.70;;;2.30;;
41739;SDS011;27422;52.444;13.300;2022-09-11T15:37:52;3.58;;;2.22;;
41739;SDS011;27422;52.444;13.300;2022-09-11T15:40:21;3.70;;;2.15;;
41739;SDS011;27422;52.444;13.300;2022-09-11T15:42:47;3.25;;;1.90;;
41739;SDS011;27422;52.444;13.300;2022-09-11T15:45:14;3.97;;;2.17;;
41739;SDS011;27422;52.444;13.300;2022-09-11T15:47:40;3.90;;;2.00;;
41739;SDS011;27422;52.444;13.300;2022-09-11T15:50:06;3.95;;;1.85;;
41739;SDS011;27422;52.444;13.300;2022-09-11T15:52:32;4.18;;;1.88;;
41739;SDS011;27422;52.444;13.300;2022-09-11T15:54:59;3.17;;;1.70;;
41739;SDS011;27422;52.444;13.300;2022-09-11T15:57:26;3.95;;;2.10;;
41739;SDS011;27422;52.444;13.300;2022-09-11T15:59:52;3.90;;;2.10;;
41739;SDS011;27422;52.444;13.300;2022-09-11T16:02:17;3.67;;;2.28;;
41739;SDS011;27422;52.444;13.300;2022-09-11T16:04:44;3.13;;;1.90;;
41739;SDS011;27422;52.444;13.300;2022-09-11T16:07:11;4.10;;;2.30;;
41739;SDS011;27422;52.444;13.300;2022-09-11T16:09:36;4.03;;;1.65;;
41739;SDS011;27422;52.444;13.300;2022-09-11T16:12:02;3.45;;;1.60;;
41739;SDS011;27422;52.444;13.300;2022-09-11T16:14:31;3.17;;;1.60;;
41739;SDS011;27422;52.444;13.300;2022-09-11T16:16:58;2.90;;;1.60;;
41739;SDS011;27422;52.444;13.300;2022-09-11T16:19:25;2.25;;;1.20;;
41739;SDS011;27422;52.444;13.300;2022-09-11T16:21:53;2.50;;;1.38;;
41739;SDS011;27422;52.444;13.300;2022-09-11T16:24:22;2.88;;;1.40;;
41739;SDS011;27422;52.444;13.300;2022-09-11T16:30:09;2.10;;;1.20;;
41739;SDS011;27422;52.444;13.300;2022-09-11T16:32:37;2.65;;;1.40;;
41739;SDS011;27422;52.444;13.300;2022-09-11T16:35:05;3.47;;;1.60;;
41739;SDS011;27422;52.444;13.300;2022-09-11T16:37:37;9.82;;;1.60;;
41739;SDS011;27422;52.444;13.300;2022-09-11T16:40:02;2.80;;;1.23;;
41739;SDS011;27422;52.444;13.300;2022-09-11T16:55:07;2.65;;;1.35;;
41739;SDS011;27422;52.444;13.300;2022-09-11T16:57:33;2.40;;;1.20;;
41739;SDS011;27422;52.444;13.300;2022-09-11T16:59:59;2.72;;;1.27;;
41739;SDS011;27422;52.444;13.300;2022-09-11T17:02:24;3.55;;;1.60;;
41739;SDS011;27422;52.444;13.300;2022-09-11T17:04:50;2.47;;;1.40;;
41739;SDS011;27422;52.444;13.300;2022-09-11T17:07:16;2.28;;;1.25;;
41739;SDS011;27422;52.444;13.300;2022-09-11T17:09:42;3.33;;;1.38;;
41739;SDS011;27422;52.444;13.300;2022-09-11T17:12:09;4.15;;;1.40;;
41739;SDS011;27422;52.444;13.300;2022-09-11T17:14:35;2.40;;;1.27;;
41739;SDS011;27422;52.444;13.300;2022-09-11T17:17:01;2.92;;;1.52;;
41739;SDS011;27422;52.444;13.300;2022-09-11T17:19:28;2.83;;;1.45;;
41739;SDS011;27422;52.444;13.300;2022-09-11T17:21:54;2.45;;;1.30;;
41739;SDS011;27422;52.444;13.300;2022-09-11T17:24:19;3.13;;;1.40;;
41739;SDS011;27422;52.444;13.300;2022-09-11T17:26:48;2.90;;;1.42;;